Time;durP1;ratioP1;P1;durP2;ratioP2;P2;SDS_P1;SDS_P2;PMS_P1;PMS_P2;Temp;Humidity;BMP_temperature;BMP_pressure;BME280_temperature;BME280_humidity;BME280_pressure;Samples;Min_cycle;Max_cycle;Signal;HPM_P1;HPM_P2
2023/04/14 00:01:36;;;;;;;0.00;0.00;;;5.70;99.90;;;;;;5092677;28;20523;-58
2023/04/14 00:04:02;;;;;;;0.00;0.00;;;5.70;99.90;;;;;;5092344;28;20188;-58
2023/04/14 00:06:27;;;;;;;0.05;0.05;;;5.60;99.90;;;;;;5092691;28;20723;-58
2023/04/14 00:08:53;;;;;;;0.00;0.00;;;5.60;99.90;;;;;;5092290;28;20195;-58
2023/04/14 00:11:18;;;;;;;0.00;0.00;;;5.50;99.90;;;;;;5092763;28;20203;-58
2023/04/14 00:13:44;;;;;;;0.00;0.00;;;5.50;99.90;;;;;;5092458;28;20734;-58
2023/04/14 00:16:11;;;;;;;0.00;0.00;;;5.50;99.90;;;;;;5091409;28;20667;-59
2023/04/14 00:18:36;;;;;;;0.10;0.10;;;5.40;99.90;;;;;;5089158;28;20204;-58
2023/04/14 00:21:02;;;;;;;0.00;0.00;;;5.40;99.90;;;;;;5091138;28;20214;-58
2023/04/14 00:23:28;;;;;;;0.00;0.00;;;5.40;99.90;;;;;;5090378;28;20546;-58
2023/04/14 00:25:53;;;;;;;0.00;0.00;;;5.50;99.90;;;;;;5091481;28;20184;-58
2023/04/14 00:28:19;;;;;;;0.08;0.08;;;5.40;99.90;;;;;;5091584;28;20322;-58
2023/04/14 00:30:45;;;;;;;0.00;0.00;;;5.40;99.90;;;;;;5091883;28;21985;-58
2023/04/14 00:33:10;;;;;;;0.00;0.00;;;5.40;99.90;;;;;;5092278;28;20194;-58
2023/04/14 00:35:36;;;;;;;1.20;0.40;;;5.40;99.90;;;;;;5091962;28;20175;-58
2023/04/14 00:38:02;;;;;;;0.00;0.00;;;5.40;99.90;;;;;;5073599;28;20651;-58
2023/04/14 00:40:28;;;;;;;0.00;0.00;;;5.40;99.90;;;;;;5075040;28;20176;-58
2023/04/14 00:42:54;;;;;;;0.00;0.00;;;5.30;99.90;;;;;;5091290;28;20289;-58
2023/04/14 00:45:20;;;;;;;0.00;0.00;;;5.30;99.90;;;;;;5091709;28;20262;-58
2023/04/14 00:47:48;;;;;;;0.00;0.00;;;5.30;99.90;;;;;;5091357;28;20218;-58
2023/04/14 00:50:15;;;;;;;0.00;0.00;;;5.20;99.90;;;;;;5091186;28;20177;-58
2023/04/14 00:52:43;;;;;;;0.00;0.00;;;5.20;99.90;;;;;;5092258;28;20263;-59
2023/04/14 00:55:09;;;;;;;0.00;0.00;;;5.20;99.90;;;;;;5090877;28;20533;-58
2023/04/14 00:57:35;;;;;;;0.00;0.00;;;5.10;99.90;;;;;;5091955;28;20164;-58
2023/04/14 01:00:03;;;;;;;0.00;0.00;;;5.10;99.90;;;;;;5091505;28;20177;-59
2023/04/14 01:02:29;;;;;;;0.00;0.00;;;5.00;99.90;;;;;;5091122;28;20659;-59
2023/04/14 01:04:55;;;;;;;0.00;0.00;;;5.00;99.90;;;;;;5091434;28;20222;-59
2023/04/14 01:07:23;;;;;;;0.10;0.10;;;4.90;99.90;;;;;;5091648;28;20246;-59
2023/04/14 01:09:50;;;;;;;0.00;0.00;;;4.90;99.90;;;;;;5091471;28;20180;-59
2023/04/14 01:12:25;;;;;;;0.03;0.03;;;4.80;99.90;;;;;;5073627;28;20176;-59
2023/04/14 01:15:03;;;;;;;0.00;0.00;;;4.80;99.90;;;;;;5091326;28;20190;-59
2023/04/14 01:17:42;;;;;;;0.05;0.05;;;4.80;99.90;;;;;;5091466;28;20279;-58
2023/04/14 01:20:21;;;;;;;0.00;0.00;;;4.80;99.90;;;;;;5091339;28;20182;-59
2023/04/14 01:23:21;;;;;;;0.00;0.00;;;4.80;99.90;;;;;;5091854;28;20262;-59
2023/04/14 01:26:19;;;;;;;0.10;0.10;;;4.70;99.90;;;;;;5049708;28;20185;-59
2023/04/14 01:28:57;;;;;;;0.00;0.00;;;4.70;99.90;;;;;;5075476;28;20236;-59
2023/04/14 01:31:41;;;;;;;0.00;0.00;;;4.60;99.90;;;;;;5091489;28;20175;-58
2023/04/14 01:34:24;;;;;;;0.00;0.00;;;4.60;99.90;;;;;;5091020;28;20180;-59
2023/04/14 01:36:56;;;;;;;0.00;0.00;;;4.60;99.90;;;;;;5082782;28;20181;-59
2023/04/14 01:39:27;;;;;;;0.00;0.00;;;4.60;99.90;;;;;;5078792;28;20172;-59
2023/04/14 01:42:00;;;;;;;0.00;0.00;;;4.50;99.90;;;;;;5091182;28;20522;-59
2023/04/14 01:44:29;;;;;;;0.00;0.00;;;4.50;99.90;;;;;;5090618;28;20202;-59
2023/04/14 01:47:03;;;;;;;0.00;0.00;;;4.50;99.90;;;;;;5089293;28;20965;-59
2023/04/14 01:49:32;;;;;;;0.00;0.00;;;4.40;99.90;;;;;;5087603;28;20304;-59
2023/04/14 01:52:00;;;;;;;0.00;0.00;;;4.40;99.90;;;;;;5090642;28;20176;-59
2023/04/14 01:54:27;;;;;;;0.00;0.00;;;4.40;99.90;;;;;;5091087;28;20537;-59
2023/04/14 01:56:53;;;;;;;0.00;0.00;;;4.40;99.90;;;;;;5090506;28;20188;-59
2023/04/14 01:59:21;;;;;;;0.00;0.00;;;4.40;99.90;;;;;;5090316;28;20194;-59
2023/04/14 02:01:50;;;;;;;0.25;0.25;;;4.40;99.90;;;;;;5090400;28;20208;-58
2023/04/14 02:04:17;;;;;;;0.00;0.00;;;4.30;99.90;;;;;;5088109;28;20237;-58
2023/04/14 02:06:46;;;;;;;0.00;0.00;;;4.30;99.90;;;;;;5090254;28;20223;-58
2023/04/14 02:09:12;;;;;;;0.00;0.00;;;4.30;99.90;;;;;;5090275;28;20191;-59
2023/04/14 02:11:39;;;;;;;0.00;0.00;;;4.20;99.90;;;;;;5090526;28;20180;-58
2023/04/14 02:14:06;;;;;;;0.20;0.20;;;4.20;99.90;;;;;;5090881;28;20230;-58
2023/04/14 02:16:35;;;;;;;0.00;0.00;;;4.30;99.90;;;;;;5090617;28;20839;-58
2023/04/14 02:19:03;;;;;;;0.00;0.00;;;4.30;99.90;;;;;;5070556;28;20276;-58
2023/04/14 02:21:30;;;;;;;0.00;0.00;;;4.20;99.90;;;;;;5080533;28;20230;-58
2023/04/14 02:23:55;;;;;;;0.00;0.00;;;4.30;99.90;;;;;;5090317;28;20191;-58
2023/04/14 02:26:25;;;;;;;0.00;0.00;;;4.30;99.90;;;;;;5090100;28;20172;-59
2023/04/14 02:29:08;;;;;;;0.00;0.00;;;4.20;99.90;;;;;;5090877;28;20184;-58
2023/04/14 02:31:38;;;;;;;0.00;0.00;;;4.20;99.90;;;;;;5090287;28;20631;-58
2023/04/14 02:34:07;;;;;;;0.00;0.00;;;4.20;99.90;;;;;;5090875;28;20176;-58
2023/04/14 02:36:38;;;;;;;0.00;0.00;;;4.10;99.90;;;;;;5090244;28;20634;-59
2023/04/14 02:39:23;;;;;;;0.10;0.10;;;4.10;99.90;;;;;;5090242;28;20182;-60
2023/04/14 02:41:56;;;;;;;0.03;0.03;;;4.00;99.90;;;;;;5090782;28;22031;-58
2023/04/14 02:44:25;;;;;;;0.00;0.00;;;4.00;99.90;;;;;;5090291;28;20188;-58
2023/04/14 02:47:06;;;;;;;0.00;0.00;;;4.00;99.90;;;;;;5090704;28;20262;-58
2023/04/14 02:49:37;;;;;;;0.00;0.00;;;3.90;99.90;;;;;;5090030;28;20693;-58
2023/04/14 02:52:09;;;;;;;0.00;0.00;;;3.90;99.90;;;;;;5090688;28;20183;-58
2023/04/14 02:54:37;;;;;;;0.00;0.00;;;3.80;99.90;;;;;;5090214;28;20176;-58
2023/04/14 02:57:04;;;;;;;0.00;0.00;;;3.80;99.90;;;;;;5090537;28;20219;-59
2023/04/14 02:59:31;;;;;;;0.45;0.45;;;3.70;99.90;;;;;;5089943;28;20271;-58
2023/04/14 03:02:03;;;;;;;0.20;0.20;;;3.70;99.90;;;;;;5090156;28;20259;-58
2023/04/14 03:04:32;;;;;;;0.00;0.00;;;3.70;99.90;;;;;;5089107;28;20185;-58
2023/04/14 03:06:59;;;;;;;0.03;0.03;;;3.70;99.90;;;;;;5078599;28;20320;-58
2023/04/14 03:09:26;;;;;;;0.00;0.00;;;3.70;99.90;;;;;;5090368;28;20676;-59
2023/04/14 03:11:54;;;;;;;0.10;0.10;;;3.70;99.90;;;;;;5089875;28;20168;-58
2023/04/14 03:14:20;;;;;;;0.00;0.00;;;3.70;99.90;;;;;;5090351;28;20180;-59
2023/04/14 03:16:50;;;;;;;0.00;0.00;;;3.60;99.90;;;;;;5090336;28;20623;-58
2023/04/14 03:19:16;;;;;;;0.00;0.00;;;3.60;99.90;;;;;;5093688;28;20172;-59
2023/04/14 03:21:42;;;;;;;0.00;0.00;;;3.60;99.90;;;;;;5093513;28;20172;-58
2023/04/14 03:24:12;;;;;;;0.32;0.32;;;3.60;99.90;;;;;;5093443;28;20202;-58
2023/04/14 03:26:40;;;;;;;0.00;0.00;;;3.60;99.90;;;;;;5092911;28;20212;-59
2023/04/14 03:29:06;;;;;;;0.00;0.00;;;3.50;99.90;;;;;;5092940;28;20233;-58
2023/04/14 03:31:35;;;;;;;0.00;0.00;;;3.50;99.90;;;;;;5092562;28;20183;-58
2023/04/14 03:34:03;;;;;;;0.00;0.00;;;3.50;99.90;;;;;;5092603;28;20192;-58
2023/04/14 03:36:30;;;;;;;0.00;0.00;;;3.40;99.90;;;;;;5090915;28;20218;-58
2023/04/14 03:38:58;;;;;;;0.00;0.00;;;3.40;99.90;;;;;;5092746;28;20184;-59
2023/04/14 03:41:25;;;;;;;0.00;0.00;;;3.40;99.90;;;;;;5092942;28;20180;-58
2023/04/14 03:43:55;;;;;;;0.00;0.00;;;3.40;99.90;;;;;;5092369;28;20184;-59
2023/04/14 03:46:23;;;;;;;0.00;0.00;;;3.30;99.90;;;;;;5090205;28;20263;-58
2023/04/14 03:48:51;;;;;;;0.10;0.10;;;3.30;99.90;;;;;;5091170;28;20582;-59
2023/04/14 03:51:19;;;;;;;0.00;0.00;;;3.30;99.90;;;;;;5092481;28;20255;-62
2023/04/14 03:53:46;;;;;;;0.00;0.00;;;3.30;99.90;;;;;;5092897;28;20307;-58
2023/04/14 03:56:12;;;;;;;0.00;0.00;;;3.30;99.90;;;;;;5092789;28;20177;-58
2023/04/14 03:58:40;;;;;;;0.00;0.00;;;3.30;99.90;;;;;;5093077;28;20168;-59
2023/04/14 04:01:06;;;;;;;0.00;0.00;;;3.30;99.90;;;;;;5093065;28;20319;-58
2023/04/14 04:03:34;;;;;;;0.00;0.00;;;3.30;99.90;;;;;;5082243;28;20181;-57
2023/04/14 04:06:01;;;;;;;0.00;0.00;;;3.30;99.90;;;;;;5072840;28;20164;-59
2023/04/14 04:08:27;;;;;;;0.00;0.00;;;3.30;99.90;;;;;;5091468;28;20587;-58
2023/04/14 04:10:56;;;;;;;0.00;0.00;;;3.30;99.90;;;;;;5092912;28;20211;-59
2023/04/14 04:13:23;;;;;;;0.00;0.00;;;3.30;99.90;;;;;;5092128;28;20642;-59
2023/04/14 04:15:53;;;;;;;0.00;0.00;;;3.30;99.90;;;;;;5092647;28;20173;-59
2023/04/14 04:18:21;;;;;;;0.00;0.00;;;3.30;99.90;;;;;;5082427;28;20187;-59
2023/04/14 04:20:48;;;;;;;0.00;0.00;;;3.30;99.90;;;;;;5072417;28;20851;-60
2023/04/14 04:23:17;;;;;;;0.00;0.00;;;3.30;99.90;;;;;;5072438;28;20185;-60
2023/04/14 04:25:43;;;;;;;0.00;0.00;;;3.30;99.90;;;;;;5072530;28;20173;-59
2023/04/14 04:28:09;;;;;;;0.00;0.00;;;3.30;99.90;;;;;;5071558;28;20590;-59
2023/04/14 04:30:37;;;;;;;0.00;0.00;;;3.30;99.90;;;;;;5072116;28;20188;-59
2023/04/14 04:33:05;;;;;;;0.00;0.00;;;3.30;99.90;;;;;;5072504;28;20212;-60
2023/04/14 04:35:32;;;;;;;0.00;0.00;;;3.30;99.90;;;;;;5072178;28;20231;-59
2023/04/14 04:38:00;;;;;;;0.00;0.00;;;3.30;99.90;;;;;;5090333;28;20181;-59
2023/04/14 04:40:25;;;;;;;0.30;0.30;;;3.30;99.90;;;;;;5092384;28;20784;-60
2023/04/14 04:42:51;;;;;;;0.00;0.00;;;3.30;99.90;;;;;;5092506;28;20191;-59
2023/04/14 04:45:40;;;;;;;0.00;0.00;;;3.40;99.90;;;;;;5092367;28;20714;-59
2023/04/14 04:48:06;;;;;;;0.00;0.00;;;3.40;99.90;;;;;;5092161;28;20251;-59
2023/04/14 04:50:32;;;;;;;0.10;0.10;;;3.40;99.90;;;;;;5092013;28;20253;-60
2023/04/14 04:52:57;;;;;;;0.95;0.20;;;3.40;99.90;;;;;;5092216;28;20638;-60
2023/04/14 04:55:23;;;;;;;0.00;0.00;;;3.50;99.90;;;;;;5091958;28;20194;-59
2023/04/14 04:57:48;;;;;;;0.00;0.00;;;3.60;99.90;;;;;;5092148;28;20180;-59
2023/04/14 05:00:14;;;;;;;0.10;0.10;;;3.60;99.90;;;;;;5092070;28;20180;-60
2023/04/14 05:02:40;;;;;;;0.00;0.00;;;3.60;99.90;;;;;;5088704;28;20228;-60
2023/04/14 05:05:07;;;;;;;0.00;0.00;;;3.60;99.90;;;;;;5071671;28;20263;-60
2023/04/14 05:07:33;;;;;;;0.00;0.00;;;3.60;99.90;;;;;;5077902;28;20246;-60
2023/04/14 05:09:58;;;;;;;0.00;0.00;;;3.60;99.90;;;;;;5091684;28;20211;-60
2023/04/14 05:12:24;;;;;;;0.00;0.00;;;3.70;99.90;;;;;;5091458;28;20255;-60
2023/04/14 05:14:49;;;;;;;0.00;0.00;;;3.70;99.90;;;;;;5091483;28;20184;-60
2023/04/14 05:17:15;;;;;;;0.00;0.00;;;3.70;99.90;;;;;;5071995;28;20284;-60
2023/04/14 05:19:40;;;;;;;0.00;0.00;;;3.80;99.90;;;;;;5054932;28;20654;-60
2023/04/14 05:22:06;;;;;;;0.00;0.00;;;3.80;99.90;;;;;;5091440;28;20172;-60
2023/04/14 05:24:31;;;;;;;0.00;0.00;;;3.90;99.90;;;;;;5091222;28;20164;-60
2023/04/14 05:26:57;;;;;;;0.00;0.00;;;4.00;99.90;;;;;;5091053;28;20579;-60
2023/04/14 05:29:22;;;;;;;0.00;0.00;;;4.10;99.90;;;;;;5091220;28;20172;-60
2023/04/14 05:31:48;;;;;;;0.00;0.00;;;4.20;99.90;;;;;;5091223;28;20294;-60
2023/04/14 05:34:14;;;;;;;0.00;0.00;;;4.30;99.90;;;;;;5091049;28;20172;-60
2023/04/14 05:36:39;;;;;;;0.00;0.00;;;4.40;99.90;;;;;;5091124;28;20237;-59
2023/04/14 05:39:05;;;;;;;0.00;0.00;;;4.50;99.90;;;;;;5091129;28;20168;-60
2023/04/14 05:41:30;;;;;;;0.00;0.00;;;4.60;99.90;;;;;;5089836;28;20168;-60
2023/04/14 05:43:56;;;;;;;0.00;0.00;;;4.70;99.90;;;;;;5090689;28;20176;-60
2023/04/14 05:46:21;;;;;;;0.00;0.00;;;4.80;99.90;;;;;;5090710;28;20187;-60
2023/04/14 05:48:47;;;;;;;0.00;0.00;;;4.90;99.90;;;;;;5090352;28;20204;-60
2023/04/14 05:51:12;;;;;;;0.00;0.00;;;5.10;99.90;;;;;;5090470;28;20176;-60
2023/04/14 05:53:38;;;;;;;0.22;0.22;;;5.30;99.90;;;;;;5090732;28;20580;-60
2023/04/14 05:56:04;;;;;;;0.00;0.00;;;5.70;99.90;;;;;;5090999;28;20732;-60
2023/04/14 05:58:29;;;;;;;0.00;0.00;;;6.10;99.90;;;;;;5090398;28;20183;-60
2023/04/14 06:00:55;;;;;;;0.00;0.00;;;6.70;99.90;;;;;;5090672;28;20175;-60
2023/04/14 06:03:20;;;;;;;0.00;0.00;;;7.20;99.90;;;;;;5090747;28;20650;-60
2023/04/14 06:05:47;;;;;;;0.00;0.00;;;7.80;99.90;;;;;;5090829;28;20183;-60
2023/04/14 06:08:12;;;;;;;0.00;0.00;;;8.40;99.90;;;;;;5090576;28;20709;-60
2023/04/14 06:10:38;;;;;;;0.00;0.00;;;9.00;99.90;;;;;;5090738;28;20184;-60
2023/04/14 06:13:03;;;;;;;0.00;0.00;;;9.60;99.90;;;;;;5072836;28;20184;-60
2023/04/14 06:15:30;;;;;;;0.00;0.00;;;9.90;99.90;;;;;;5090436;28;20191;-60
2023/04/14 06:17:55;;;;;;;0.00;0.00;;;10.10;99.90;;;;;;5090483;28;20184;-60
2023/04/14 06:20:21;;;;;;;0.00;0.00;;;10.30;99.90;;;;;;5090480;28;20187;-60
2023/04/14 06:22:47;;;;;;;0.10;0.10;;;10.50;99.90;;;;;;5090499;28;20176;-60
2023/04/14 06:25:12;;;;;;;0.00;0.00;;;10.60;99.90;;;;;;5090485;28;20185;-60
2023/04/14 06:27:38;;;;;;;0.00;0.00;;;10.90;99.90;;;;;;5090219;28;20764;-60
2023/04/14 06:30:05;;;;;;;0.00;0.00;;;11.00;99.50;;;;;;5090493;28;20168;-60
2023/04/14 06:32:31;;;;;;;0.00;0.00;;;10.90;99.70;;;;;;5090339;28;20191;-60
2023/04/14 06:34:56;;;;;;;0.00;0.00;;;11.00;99.20;;;;;;5090471;28;20255;-59
2023/04/14 06:37:21;;;;;;;0.00;0.00;;;11.10;99.50;;;;;;5090263;28;20176;-60
2023/04/14 06:39:47;;;;;;;0.00;0.00;;;11.50;99.20;;;;;;5090075;28;20690;-60
2023/04/14 06:42:14;;;;;;;0.00;0.00;;;11.90;98.70;;;;;;5089846;28;20195;-60
2023/04/14 06:44:40;;;;;;;0.00;0.00;;;12.10;97.70;;;;;;5090355;28;20184;-60
2023/04/14 06:47:06;;;;;;;0.00;0.00;;;12.10;97.10;;;;;;5090406;28;20662;-60
2023/04/14 06:49:31;;;;;;;0.00;0.00;;;12.40;97.50;;;;;;5090205;28;20244;-60
2023/04/14 06:51:57;;;;;;;0.00;0.00;;;12.80;96.30;;;;;;5091386;28;20515;-60
2023/04/14 06:54:22;;;;;;;0.00;0.00;;;12.70;95.50;;;;;;5094012;28;20649;-59
2023/04/14 06:56:48;;;;;;;0.00;0.00;;;12.80;95.40;;;;;;5093884;28;20176;-60
2023/04/14 06:59:14;;;;;;;0.00;0.00;;;13.00;95.20;;;;;;5093907;28;20168;-60
2023/04/14 07:01:40;;;;;;;0.00;0.00;;;13.10;95.50;;;;;;5093968;28;20325;-60
2023/04/14 07:04:06;;;;;;;0.00;0.00;;;13.50;95.30;;;;;;5093786;28;20634;-61
2023/04/14 07:06:31;;;;;;;0.00;0.00;;;13.80;94.20;;;;;;5093984;28;20183;-58
2023/04/14 07:08:57;;;;;;;0.00;0.00;;;14.00;93.20;;;;;;5093774;28;20207;-60
2023/04/14 07:11:22;;;;;;;0.00;0.00;;;13.80;92.80;;;;;;5094126;28;20175;-60
2023/04/14 07:13:48;;;;;;;0.00;0.00;;;13.80;93.40;;;;;;5094416;28;20184;-60
2023/04/14 07:16:13;;;;;;;0.00;0.00;;;13.90;93.20;;;;;;5093899;28;20230;-60
2023/04/14 07:18:39;;;;;;;0.00;0.00;;;14.20;92.40;;;;;;5093855;28;20172;-60
2023/04/14 07:21:04;;;;;;;0.03;0.03;;;14.40;92.00;;;;;;5094338;28;20571;-61
2023/04/14 07:23:31;;;;;;;0.00;0.00;;;14.70;91.40;;;;;;5093814;28;20765;-60
2023/04/14 07:25:58;;;;;;;0.00;0.00;;;14.80;91.20;;;;;;5094298;28;20187;-60
2023/04/14 07:28:25;;;;;;;0.00;0.00;;;15.30;90.90;;;;;;5093646;28;20254;-60
2023/04/14 07:30:52;;;;;;;0.00;0.00;;;15.80;88.10;;;;;;5094013;28;20175;-60
2023/04/14 07:33:20;;;;;;;0.00;0.00;;;15.70;87.10;;;;;;5093797;28;20200;-60
2023/04/14 07:35:52;;;;;;;0.00;0.00;;;15.40;87.40;;;;;;5094356;28;20177;-60
2023/04/14 07:38:18;;;;;;;0.00;0.00;;;15.40;87.60;;;;;;5088535;28;20656;-60
2023/04/14 07:40:44;;;;;;;0.00;0.00;;;15.90;88.60;;;;;;5094043;28;20172;-60
2023/04/14 07:43:10;;;;;;;0.00;0.00;;;16.20;87.10;;;;;;5093374;28;20226;-60
2023/04/14 07:45:37;;;;;;;0.00;0.00;;;16.70;85.30;;;;;;5093797;28;20184;-60
2023/04/14 07:48:02;;;;;;;0.00;0.00;;;17.10;80.80;;;;;;5093631;28;20215;-60
2023/04/14 07:50:28;;;;;;;0.00;0.00;;;16.80;80.40;;;;;;5093141;28;20263;-60
2023/04/14 07:52:53;;;;;;;0.13;0.13;;;16.80;81.00;;;;;;5093750;28;20222;-59
2023/04/14 07:55:19;;;;;;;0.00;0.00;;;16.50;80.10;;;;;;5093301;28;20172;-59
2023/04/14 07:57:45;;;;;;;0.00;0.00;;;16.30;80.00;;;;;;5093723;28;20186;-59
2023/04/14 08:00:11;;;;;;;0.00;0.00;;;16.30;81.10;;;;;;5093323;28;20522;-60
2023/04/14 08:02:37;;;;;;;0.00;0.00;;;16.10;81.10;;;;;;5075133;28;20562;-59
2023/04/14 08:05:03;;;;;;;0.00;0.00;;;16.40;81.90;;;;;;5093399;28;20164;-59
2023/04/14 08:07:29;;;;;;;0.00;0.00;;;16.30;80.30;;;;;;5093427;28;20208;-59
2023/04/14 08:09:54;;;;;;;0.20;0.20;;;16.10;79.90;;;;;;5093219;28;20183;-59
2023/04/14 08:12:20;;;;;;;0.00;0.00;;;16.30;79.40;;;;;;5093292;28;20180;-59
2023/04/14 08:14:49;;;;;;;0.00;0.00;;;16.40;79.60;;;;;;5093448;28;20543;-60
2023/04/14 08:17:14;;;;;;;0.00;0.00;;;16.60;79.70;;;;;;5092695;28;20180;-60
2023/04/14 08:19:40;;;;;;;0.00;0.00;;;16.90;79.00;;;;;;5093266;28;20650;-60
2023/04/14 08:22:06;;;;;;;0.00;0.00;;;17.40;79.10;;;;;;5092930;28;20650;-60
2023/04/14 08:24:31;;;;;;;0.00;0.00;;;18.10;74.80;;;;;;5093051;28;20242;-60
2023/04/14 08:26:57;;;;;;;0.00;0.00;;;18.40;74.70;;;;;;5092616;28;20239;-58
2023/04/14 08:29:23;;;;;;;0.00;0.00;;;18.60;74.80;;;;;;5092884;28;20191;-59
2023/04/14 08:31:48;;;;;;;0.00;0.00;;;19.20;73.50;;;;;;5092721;28;20242;-60
2023/04/14 08:34:14;;;;;;;0.00;0.00;;;19.50;69.00;;;;;;5092881;28;20237;-59
2023/04/14 08:36:40;;;;;;;0.00;0.00;;;19.70;67.00;;;;;;5092635;28;20250;-59
2023/04/14 08:39:06;;;;;;;0.00;0.00;;;19.90;67.10;;;;;;5092845;28;20719;-59
2023/04/14 08:41:37;;;;;;;0.00;0.00;;;20.00;66.50;;;;;;5092516;28;20643;-60
2023/04/14 08:44:02;;;;;;;0.00;0.00;;;20.20;63.40;;;;;;5092614;28;20167;-60
2023/04/14 08:46:29;;;;;;;0.00;0.00;;;20.10;62.80;;;;;;5092359;28;20168;-60
2023/04/14 08:49:03;;;;;;;0.00;0.00;;;19.90;62.60;;;;;;5092138;28;20274;-60
2023/04/14 08:51:38;;;;;;;0.00;0.00;;;19.60;62.90;;;;;;5092431;28;20212;-60
2023/04/14 08:54:14;;;;;;;0.00;0.00;;;19.90;64.70;;;;;;5092624;28;20643;-60
2023/04/14 08:56:41;;;;;;;0.00;0.00;;;20.10;64.70;;;;;;5092400;28;20176;-61
2023/04/14 08:59:08;;;;;;;0.00;0.00;;;20.00;62.30;;;;;;5092394;28;20176;-60
2023/04/14 09:01:34;;;;;;;0.00;0.00;;;20.20;64.90;;;;;;5091881;28;20175;-60
2023/04/14 09:04:03;;;;;;;0.20;0.20;;;20.20;61.40;;;;;;5092073;28;20662;-60
2023/04/14 09:06:29;;;;;;;0.00;0.00;;;20.40;60.80;;;;;;5091699;28;20184;-60
2023/04/14 09:08:55;;;;;;;0.00;0.00;;;20.50;61.50;;;;;;5092065;28;20191;-60
2023/04/14 09:11:21;;;;;;;0.00;0.00;;;20.60;59.90;;;;;;5092149;28;20172;-60
2023/04/14 09:13:48;;;;;;;0.00;0.00;;;20.00;59.30;;;;;;5091986;28;20187;-60
2023/04/14 09:16:16;;;;;;;0.00;0.00;;;20.00;61.20;;;;;;5084623;28;20172;-60
2023/04/14 09:18:42;;;;;;;0.00;0.00;;;20.20;60.60;;;;;;5077911;28;20180;-60
2023/04/14 09:21:09;;;;;;;0.00;0.00;;;20.20;60.00;;;;;;5091934;28;20345;-60
2023/04/14 09:23:36;;;;;;;0.00;0.00;;;20.10;59.60;;;;;;5091480;28;20543;-59
2023/04/14 09:26:02;;;;;;;0.00;0.00;;;20.10;60.50;;;;;;5091817;28;20531;-60
2023/04/14 09:28:27;;;;;;;0.00;0.00;;;19.90;61.30;;;;;;5091233;28;20254;-60
2023/04/14 09:30:55;;;;;;;0.00;0.00;;;20.00;61.70;;;;;;5091765;28;20172;-60
2023/04/14 09:33:22;;;;;;;0.10;0.10;;;20.30;60.20;;;;;;5091368;28;20527;-60
2023/04/14 09:35:49;;;;;;;0.00;0.00;;;20.40;59.30;;;;;;5091767;28;20180;-60
2023/04/14 09:38:29;;;;;;;0.00;0.00;;;20.20;58.30;;;;;;5074555;28;20677;-60
2023/04/14 09:40:55;;;;;;;0.00;0.00;;;20.00;58.30;;;;;;5080583;28;20222;-60
2023/04/14 09:43:26;;;;;;;0.00;0.00;;;19.70;59.70;;;;;;5091660;28;20204;-60
2023/04/14 09:45:52;;;;;;;0.00;0.00;;;19.70;59.40;;;;;;5090973;28;20180;-60
2023/04/14 09:48:19;;;;;;;0.00;0.00;;;19.50;59.60;;;;;;5091448;28;20571;-60
2023/04/14 09:51:00;;;;;;;0.00;0.00;;;19.50;58.10;;;;;;5091263;28;20255;-60
2023/04/14 09:53:34;;;;;;;0.00;0.00;;;19.30;59.50;;;;;;5091359;28;20603;-60
2023/04/14 09:56:03;;;;;;;0.00;0.00;;;19.20;60.90;;;;;;5091212;28;20176;-60
2023/04/14 09:58:34;;;;;;;0.00;0.00;;;19.30;61.60;;;;;;5091276;28;20227;-60
2023/04/14 10:01:02;;;;;;;0.00;0.00;;;19.40;60.20;;;;;;5090976;28;20184;-60
2023/04/14 10:03:47;;;;;;;0.00;0.00;;;19.50;61.30;;;;;;5091433;28;20186;-60
2023/04/14 10:06:18;;;;;;;0.00;0.00;;;19.10;58.00;;;;;;5090894;28;20677;-60
2023/04/14 10:08:47;;;;;;;0.00;0.00;;;18.40;59.50;;;;;;5091238;28;20256;-59
2023/04/14 10:11:17;;;;;;;0.00;0.00;;;18.30;60.20;;;;;;5090864;28;20187;-59
2023/04/14 10:13:44;;;;;;;0.00;0.00;;;18.60;63.30;;;;;;5091362;28;20176;-59
2023/04/14 10:16:10;;;;;;;0.00;0.00;;;19.00;61.50;;;;;;5090865;28;20550;-59
2023/04/14 10:18:36;;;;;;;0.00;0.00;;;19.50;61.80;;;;;;5091224;28;20172;-59
2023/04/14 10:21:02;;;;;;;0.00;0.00;;;19.60;60.90;;;;;;5091048;28;20211;-60
2023/04/14 10:23:30;;;;;;;0.00;0.00;;;19.40;59.90;;;;;;5091022;28;20685;-58
2023/04/14 10:25:56;;;;;;;0.00;0.00;;;19.70;60.90;;;;;;5091498;28;20176;-59
2023/04/14 10:28:22;;;;;;;0.00;0.00;;;20.00;58.80;;;;;;5084886;28;20752;-59
2023/04/14 10:30:50;;;;;;;0.00;0.00;;;19.60;56.70;;;;;;5078878;28;20519;-58
2023/04/14 10:33:16;;;;;;;0.00;0.00;;;19.60;57.90;;;;;;5094723;28;20168;-58
2023/04/14 10:35:45;;;;;;;0.63;0.52;;;19.70;58.80;;;;;;5094441;28;20234;-58
2023/04/14 10:38:11;;;;;;;0.00;0.00;;;19.60;57.70;;;;;;5093105;28;20168;-58
2023/04/14 10:40:47;;;;;;;0.00;0.00;;;19.50;58.20;;;;;;5095009;28;20541;-58
2023/04/14 10:43:12;;;;;;;0.00;0.00;;;19.60;59.00;;;;;;5094964;28;20180;-58
2023/04/14 10:45:57;;;;;;;0.00;0.00;;;19.70;59.90;;;;;;5095063;28;20182;-58
2023/04/14 10:48:31;;;;;;;0.00;0.00;;;19.80;58.20;;;;;;5094524;28;20215;-58
2023/04/14 10:51:08;;;;;;;0.00;0.00;;;19.30;57.50;;;;;;5094734;28;20541;-58
2023/04/14 10:53:46;;;;;;;0.00;0.00;;;18.50;55.50;;;;;;5094831;28;20271;-59
2023/04/14 10:56:12;;;;;;;0.00;0.00;;;18.30;58.00;;;;;;5094777;28;20199;-59
2023/04/14 10:58:37;;;;;;;0.00;0.00;;;18.00;59.30;;;;;;5094798;28;20630;-59
2023/04/14 11:01:25;;;;;;;0.00;0.00;;;17.50;56.90;;;;;;5094746;28;20180;-59
2023/04/14 11:03:53;;;;;;;0.00;0.00;;;17.10;58.40;;;;;;5076889;28;20168;-59
2023/04/14 11:06:46;;;;;;;0.00;0.00;;;16.90;56.80;;;;;;5094437;28;20551;-59
2023/04/14 11:09:28;;;;;;;0.00;0.00;;;16.40;57.80;;;;;;5094090;28;20184;-59
2023/04/14 11:11:56;;;;;;;0.00;0.00;;;16.10;62.90;;;;;;5074218;28;20643;-60
2023/04/14 11:14:26;;;;;;;0.00;0.00;;;16.60;63.50;;;;;;5075860;28;20193;-60
2023/04/14 11:16:56;;;;;;;0.00;0.00;;;17.10;62.20;;;;;;5094305;28;20180;-59
2023/04/14 11:19:21;;;;;;;0.00;0.00;;;17.80;61.90;;;;;;5093904;28;20207;-59
2023/04/14 11:21:48;;;;;;;0.00;0.00;;;18.30;58.10;;;;;;5094289;28;20584;-59
2023/04/14 11:24:15;;;;;;;0.00;0.00;;;18.30;56.50;;;;;;5094122;28;20632;-59
2023/04/14 11:26:43;;;;;;;0.00;0.00;;;18.30;57.50;;;;;;5093494;28;20216;-59
2023/04/14 11:29:08;;;;;;;0.00;0.00;;;18.30;57.90;;;;;;5094036;28;20180;-59
2023/04/14 11:31:34;;;;;;;0.00;0.00;;;18.30;57.70;;;;;;5092842;28;20182;-59
2023/04/14 11:34:03;;;;;;;0.00;0.00;;;18.30;56.80;;;;;;5093778;28;20183;-59
2023/04/14 11:36:31;;;;;;;0.00;0.00;;;18.40;57.30;;;;;;5093619;28;20233;-59
2023/04/14 11:38:58;;;;;;;0.00;0.00;;;18.30;60.10;;;;;;5092793;28;20663;-59
2023/04/14 11:41:24;;;;;;;0.00;0.00;;;18.40;58.50;;;;;;5093792;28;20180;-59
2023/04/14 11:43:50;;;;;;;0.00;0.00;;;18.20;57.90;;;;;;5093457;28;20183;-59
2023/04/14 11:46:20;;;;;;;0.00;0.00;;;18.00;58.20;;;;;;5093846;28;20180;-59
2023/04/14 11:48:45;;;;;;;0.00;0.00;;;17.90;58.30;;;;;;5093473;28;20264;-59
2023/04/14 11:51:11;;;;;;;0.00;0.00;;;18.10;57.60;;;;;;5093477;28;20537;-59
2023/04/14 11:53:39;;;;;;;0.00;0.00;;;18.50;57.00;;;;;;5093270;28;20180;-58
2023/04/14 11:56:07;;;;;;;0.25;0.25;;;18.70;55.50;;;;;;5093671;28;20627;-58
2023/04/14 11:58:33;;;;;;;0.00;0.00;;;19.00;54.40;;;;;;5092743;28;20179;-58
2023/04/14 12:00:59;;;;;;;0.00;0.00;;;18.60;54.70;;;;;;5093307;28;20176;-58
2023/04/14 12:03:30;;;;;;;0.00;0.00;;;18.10;55.60;;;;;;5093421;28;20168;-59
2023/04/14 12:06:00;;;;;;;0.00;0.00;;;17.80;54.80;;;;;;5093085;28;20216;-59
2023/04/14 12:08:27;;;;;;;0.00;0.00;;;17.60;57.40;;;;;;5093253;28;20627;-61
2023/04/14 12:10:55;;;;;;;0.00;0.00;;;17.70;55.70;;;;;;5092875;28;20190;-60
2023/04/14 12:13:20;;;;;;;0.00;0.00;;;18.00;55.60;;;;;;5093173;28;20186;-57
2023/04/14 12:15:46;;;;;;;0.00;0.00;;;18.30;54.60;;;;;;5074690;28;20280;-59
2023/04/14 12:18:14;;;;;;;0.00;0.00;;;18.20;52.30;;;;;;5093055;28;20183;-62
2023/04/14 12:21:03;;;;;;;0.00;0.00;;;17.70;51.60;;;;;;5092893;28;20172;-61
2023/04/14 12:23:33;;;;;;;0.00;0.00;;;17.70;53.40;;;;;;5092927;28;20271;-61
2023/04/14 12:25:58;;;;;;;0.00;0.00;;;17.80;55.40;;;;;;5092696;28;20180;-60
2023/04/14 12:28:26;;;;;;;0.00;0.00;;;17.90;54.70;;;;;;5082224;28;20262;-60
2023/04/14 12:30:53;;;;;;;0.00;0.00;;;17.80;54.80;;;;;;5081038;28;20639;-61
2023/04/14 12:33:22;;;;;;;0.00;0.00;;;18.00;54.70;;;;;;5092969;28;20173;-61
2023/04/14 12:35:50;;;;;;;0.00;0.00;;;18.30;54.80;;;;;;5092496;28;20175;-61
2023/04/14 12:38:15;;;;;;;0.00;0.00;;;18.40;53.90;;;;;;5072437;28;20268;-60
2023/04/14 12:40:46;;;;;;;0.05;0.05;;;18.20;52.60;;;;;;5077994;28;20255;-61
2023/04/14 12:43:13;;;;;;;0.00;0.00;;;18.20;53.20;;;;;;5092467;28;20263;-60
2023/04/14 12:45:47;;;;;;;0.00;0.00;;;18.00;52.10;;;;;;5092376;28;20202;-60
2023/04/14 12:48:14;;;;;;;0.00;0.00;;;17.90;52.70;;;;;;5092254;28;20574;-59
2023/04/14 12:50:40;;;;;;;0.00;0.00;;;18.10;55.00;;;;;;5090751;28;20176;-60
2023/04/14 12:53:25;;;;;;;0.00;0.00;;;18.40;53.10;;;;;;5092164;28;20167;-62
2023/04/14 12:56:07;;;;;;;0.03;0.03;;;18.50;52.60;;;;;;5092265;28;20176;-60
2023/04/14 12:58:35;;;;;;;0.00;0.00;;;18.80;52.50;;;;;;5073829;28;20259;-60